sensor_id;sensor_type;location;lat;lon;timestamp;P1;durP1;ratioP1;P2;durP2;ratioP2
2388;SDS011;1205;47.984;7.668;2022-08-19T00:00:25;12.27;;;10.57;;
2388;SDS011;1205;47.984;7.668;2022-08-19T00:02:52;21.20;;;12.80;;
2388;SDS011;1205;47.984;7.668;2022-08-19T00:05:18;14.93;;;13.33;;
2388;SDS011;1205;47.984;7.668;2022-08-19T00:07:45;16.90;;;14.13;;
2388;SDS011;1205;47.984;7.668;2022-08-19T00:10:11;19.30;;;14.87;;
2388;SDS011;1205;47.984;7.668;2022-08-19T00:12:39;15.63;;;14.03;;
2388;SDS011;1205;47.984;7.668;2022-08-19T00:15:07;12.30;;;11.10;;
2388;SDS011;1205;47.984;7.668;2022-08-19T00:17:39;14.10;;;12.00;;
2388;SDS011;1205;47.984;7.668;2022-08-19T00:20:06;12.23;;;10.93;;
2388;SDS011;1205;47.984;7.668;2022-08-19T00:22:33;16.80;;;12.73;;
2388;SDS011;1205;47.984;7.668;2022-08-19T00:24:59;14.40;;;12.83;;
2388;SDS011;1205;47.984;7.668;2022-08-19T00:27:25;20.67;;;15.47;;
2388;SDS011;1205;47.984;7.668;2022-08-19T00:29:50;17.23;;;13.07;;
2388;SDS011;1205;47.984;7.668;2022-08-19T00:32:16;17.80;;;15.90;;
2388;SDS011;1205;47.984;7.668;2022-08-19T00:34:42;17.93;;;12.60;;
2388;SDS011;1205;47.984;7.668;2022-08-19T00:37:08;19.97;;;14.20;;
2388;SDS011;1205;47.984;7.668;2022-08-19T00:39:34;17.97;;;16.00;;
2388;SDS011;1205;47.984;7.668;2022-08-19T00:42:00;23.70;;;18.20;;
2388;SDS011;1205;47.984;7.668;2022-08-19T00:44:27;24.30;;;15.63;;
2388;SDS011;1205;47.984;7.668;2022-08-19T00:46:57;27.23;;;20.50;;
2388;SDS011;1205;47.984;7.668;2022-08-19T00:49:28;23.70;;;18.50;;
2388;SDS011;1205;47.984;7.668;2022-08-19T00:52:06;26.07;;;20.07;;
2388;SDS011;1205;47.984;7.668;2022-08-19T00:54:34;19.43;;;17.40;;
2388;SDS011;1205;47.984;7.668;2022-08-19T00:57:03;23.70;;;14.03;;
2388;SDS011;1205;47.984;7.668;2022-08-19T00:59:33;23.03;;;16.43;;
2388;SDS011;1205;47.984;7.668;2022-08-19T01:02:01;19.97;;;15.40;;
2388;SDS011;1205;47.984;7.668;2022-08-19T01:04:28;16.60;;;13.77;;
2388;SDS011;1205;47.984;7.668;2022-08-19T01:06:53;19.93;;;14.03;;
2388;SDS011;1205;47.984;7.668;2022-08-19T01:09:21;20.20;;;15.57;;
2388;SDS011;1205;47.984;7.668;2022-08-19T01:11:46;17.57;;;15.03;;
2388;SDS011;1205;47.984;7.668;2022-08-19T01:14:12;23.10;;;18.93;;
2388;SDS011;1205;47.984;7.668;2022-08-19T01:16:39;27.87;;;21.20;;
2388;SDS011;1205;47.984;7.668;2022-08-19T01:19:17;29.73;;;19.10;;
2388;SDS011;1205;47.984;7.668;2022-08-19T01:21:55;30.03;;;24.07;;
2388;SDS011;1205;47.984;7.668;2022-08-19T01:24:26;24.13;;;21.57;;
2388;SDS011;1205;47.984;7.668;2022-08-19T01:26:52;30.57;;;22.23;;
2388;SDS011;1205;47.984;7.668;2022-08-19T01:29:18;38.00;;;27.67;;
2388;SDS011;1205;47.984;7.668;2022-08-19T01:31:43;38.67;;;25.80;;
2388;SDS011;1205;47.984;7.668;2022-08-19T01:34:09;31.23;;;21.47;;
2388;SDS011;1205;47.984;7.668;2022-08-19T01:36:42;28.00;;;24.60;;
2388;SDS011;1205;47.984;7.668;2022-08-19T01:39:16;27.53;;;19.60;;
2388;SDS011;1205;47.984;7.668;2022-08-19T01:41:44;20.40;;;18.30;;
2388;SDS011;1205;47.984;7.668;2022-08-19T01:44:10;19.93;;;16.23;;
2388;SDS011;1205;47.984;7.668;2022-08-19T01:46:36;23.13;;;18.07;;
2388;SDS011;1205;47.984;7.668;2022-08-19T01:49:03;14.23;;;12.83;;
2388;SDS011;1205;47.984;7.668;2022-08-19T01:51:29;15.90;;;12.80;;
2388;SDS011;1205;47.984;7.668;2022-08-19T01:53:55;13.37;;;11.50;;
2388;SDS011;1205;47.984;7.668;2022-08-19T01:56:21;15.37;;;13.53;;
2388;SDS011;1205;47.984;7.668;2022-08-19T01:58:49;14.70;;;13.30;;
2388;SDS011;1205;47.984;7.668;2022-08-19T02:01:18;15.97;;;11.87;;
2388;SDS011;1205;47.984;7.668;2022-08-19T02:03:44;14.47;;;12.97;;
2388;SDS011;1205;47.984;7.668;2022-08-19T02:06:10;18.80;;;14.67;;
2388;SDS011;1205;47.984;7.668;2022-08-19T02:08:37;19.53;;;14.50;;
2388;SDS011;1205;47.984;7.668;2022-08-19T02:11:04;18.50;;;16.50;;
2388;SDS011;1205;47.984;7.668;2022-08-19T02:13:31;19.60;;;17.60;;
2388;SDS011;1205;47.984;7.668;2022-08-19T02:15:57;21.77;;;18.00;;
2388;SDS011;1205;47.984;7.668;2022-08-19T02:18:23;24.87;;;16.07;;
2388;SDS011;1205;47.984;7.668;2022-08-19T02:20:48;19.27;;;17.13;;
2388;SDS011;1205;47.984;7.668;2022-08-19T02:23:14;18.97;;;15.47;;
2388;SDS011;1205;47.984;7.668;2022-08-19T02:25:41;15.27;;;13.70;;
2388;SDS011;1205;47.984;7.668;2022-08-19T02:28:09;16.87;;;15.17;;
2388;SDS011;1205;47.984;7.668;2022-08-19T02:30:36;20.00;;;16.13;;
2388;SDS011;1205;47.984;7.668;2022-08-19T02:33:03;25.10;;;17.43;;
2388;SDS011;1205;47.984;7.668;2022-08-19T02:35:29;15.53;;;13.47;;
2388;SDS011;1205;47.984;7.668;2022-08-19T02:37:55;17.17;;;15.40;;
2388;SDS011;1205;47.984;7.668;2022-08-19T02:40:39;19.40;;;16.17;;
2388;SDS011;1205;47.984;7.668;2022-08-19T02:43:06;18.93;;;15.87;;
2388;SDS011;1205;47.984;7.668;2022-08-19T02:45:34;20.80;;;13.50;;
2388;SDS011;1205;47.984;7.668;2022-08-19T02:48:00;19.10;;;13.57;;
2388;SDS011;1205;47.984;7.668;2022-08-19T02:50:26;15.50;;;13.83;;
2388;SDS011;1205;47.984;7.668;2022-08-19T02:52:52;14.03;;;12.80;;
2388;SDS011;1205;47.984;7.668;2022-08-19T02:55:18;19.13;;;12.80;;
2388;SDS011;1205;47.984;7.668;2022-08-19T02:57:43;12.70;;;11.50;;
2388;SDS011;1205;47.984;7.668;2022-08-19T03:00:09;14.50;;;12.93;;
2388;SDS011;1205;47.984;7.668;2022-08-19T03:02:39;12.93;;;11.73;;
2388;SDS011;1205;47.984;7.668;2022-08-19T03:05:05;12.17;;;10.97;;
2388;SDS011;1205;47.984;7.668;2022-08-19T03:07:32;16.13;;;11.90;;
2388;SDS011;1205;47.984;7.668;2022-08-19T03:09:58;13.47;;;12.07;;
2388;SDS011;1205;47.984;7.668;2022-08-19T03:12:24;14.03;;;12.57;;
2388;SDS011;1205;47.984;7.668;2022-08-19T03:14:49;14.03;;;12.77;;
2388;SDS011;1205;47.984;7.668;2022-08-19T03:17:16;16.47;;;12.33;;
2388;SDS011;1205;47.984;7.668;2022-08-19T03:19:41;19.43;;;13.50;;
2388;SDS011;1205;47.984;7.668;2022-08-19T03:22:08;19.40;;;14.17;;
2388;SDS011;1205;47.984;7.668;2022-08-19T03:24:33;15.13;;;12.93;;
2388;SDS011;1205;47.984;7.668;2022-08-19T03:26:59;16.83;;;13.93;;
2388;SDS011;1205;47.984;7.668;2022-08-19T03:29:26;18.40;;;13.50;;
2388;SDS011;1205;47.984;7.668;2022-08-19T03:31:52;15.17;;;11.80;;
2388;SDS011;1205;47.984;7.668;2022-08-19T03:34:21;22.43;;;14.67;;
2388;SDS011;1205;47.984;7.668;2022-08-19T03:36:51;16.40;;;13.93;;
2388;SDS011;1205;47.984;7.668;2022-08-19T03:39:18;20.33;;;14.20;;
2388;SDS011;1205;47.984;7.668;2022-08-19T03:41:44;20.17;;;13.30;;
2388;SDS011;1205;47.984;7.668;2022-08-19T03:44:12;14.10;;;12.90;;
2388;SDS011;1205;47.984;7.668;2022-08-19T03:46:38;19.30;;;15.00;;
2388;SDS011;1205;47.984;7.668;2022-08-19T03:49:04;17.57;;;15.23;;
2388;SDS011;1205;47.984;7.668;2022-08-19T03:51:34;14.27;;;12.93;;
2388;SDS011;1205;47.984;7.668;2022-08-19T03:54:04;15.07;;;13.53;;
2388;SDS011;1205;47.984;7.668;2022-08-19T03:56:33;21.30;;;14.60;;
2388;SDS011;1205;47.984;7.668;2022-08-19T03:59:01;13.73;;;12.43;;
2388;SDS011;1205;47.984;7.668;2022-08-19T04:01:28;19.80;;;16.43;;
2388;SDS011;1205;47.984;7.668;2022-08-19T04:03:57;19.60;;;13.10;;
2388;SDS011;1205;47.984;7.668;2022-08-19T04:06:34;22.07;;;14.20;;
2388;SDS011;1205;47.984;7.668;2022-08-19T04:09:02;16.47;;;14.67;;
2388;SDS011;1205;47.984;7.668;2022-08-19T04:11:40;15.67;;;14.20;;
2388;SDS011;1205;47.984;7.668;2022-08-19T04:14:08;24.67;;;16.00;;
2388;SDS011;1205;47.984;7.668;2022-08-19T04:16:41;28.40;;;17.43;;
2388;SDS011;1205;47.984;7.668;2022-08-19T04:19:09;19.23;;;15.67;;
2388;SDS011;1205;47.984;7.668;2022-08-19T04:21:35;22.20;;;15.90;;
2388;SDS011;1205;47.984;7.668;2022-08-19T04:24:01;19.80;;;17.93;;
2388;SDS011;1205;47.984;7.668;2022-08-19T04:26:29;15.93;;;14.43;;
2388;SDS011;1205;47.984;7.668;2022-08-19T04:29:04;18.53;;;14.10;;
2388;SDS011;1205;47.984;7.668;2022-08-19T04:31:31;16.40;;;13.53;;
2388;SDS011;1205;47.984;7.668;2022-08-19T04:34:01;16.43;;;14.73;;
2388;SDS011;1205;47.984;7.668;2022-08-19T04:36:30;18.10;;;16.30;;
2388;SDS011;1205;47.984;7.668;2022-08-19T04:38:59;16.70;;;14.97;;
2388;SDS011;1205;47.984;7.668;2022-08-19T04:41:28;17.50;;;15.70;;
2388;SDS011;1205;47.984;7.668;2022-08-19T04:44:12;15.63;;;14.10;;
2388;SDS011;1205;47.984;7.668;2022-08-19T04:46:38;15.37;;;13.77;;
2388;SDS011;1205;47.984;7.668;2022-08-19T04:49:05;19.17;;;15.80;;
2388;SDS011;1205;47.984;7.668;2022-08-19T04:51:32;17.13;;;15.47;;
2388;SDS011;1205;47.984;7.668;2022-08-19T04:53:58;21.87;;;17.73;;
2388;SDS011;1205;47.984;7.668;2022-08-19T04:56:26;18.27;;;16.47;;
2388;SDS011;1205;47.984;7.668;2022-08-19T04:58:52;18.57;;;16.23;;
2388;SDS011;1205;47.984;7.668;2022-08-19T05:01:20;17.57;;;15.07;;
2388;SDS011;1205;47.984;7.668;2022-08-19T05:03:51;17.47;;;15.67;;
2388;SDS011;1205;47.984;7.668;2022-08-19T05:06:18;17.03;;;15.27;;
2388;SDS011;1205;47.984;7.668;2022-08-19T05:08:47;18.60;;;16.57;;
2388;SDS011;1205;47.984;7.668;2022-08-19T05:11:18;18.20;;;16.27;;
2388;SDS011;1205;47.984;7.668;2022-08-19T05:13:45;16.13;;;14.17;;
2388;SDS011;1205;47.984;7.668;2022-08-19T05:16:13;18.50;;;15.77;;
2388;SDS011;1205;47.984;7.668;2022-08-19T05:18:40;17.50;;;14.77;;
2388;SDS011;1205;47.984;7.668;2022-08-19T05:21:25;17.10;;;12.93;;
2388;SDS011;1205;47.984;7.668;2022-08-19T05:24:10;14.20;;;12.90;;
2388;SDS011;1205;47.984;7.668;2022-08-19T05:26:37;17.27;;;15.67;;
2388;SDS011;1205;47.984;7.668;2022-08-19T05:29:05;14.50;;;13.00;;
2388;SDS011;1205;47.984;7.668;2022-08-19T05:31:32;19.27;;;14.80;;
2388;SDS011;1205;47.984;7.668;2022-08-19T05:33:58;15.30;;;13.80;;
2388;SDS011;1205;47.984;7.668;2022-08-19T05:36:24;15.37;;;13.80;;
2388;SDS011;1205;47.984;7.668;2022-08-19T05:38:51;15.40;;;14.00;;
2388;SDS011;1205;47.984;7.668;2022-08-19T05:41:18;20.63;;;12.77;;
2388;SDS011;1205;47.984;7.668;2022-08-19T05:43:44;14.60;;;13.10;;
2388;SDS011;1205;47.984;7.668;2022-08-19T05:46:15;17.63;;;14.10;;
2388;SDS011;1205;47.984;7.668;2022-08-19T05:48:43;17.63;;;15.90;;
2388;SDS011;1205;47.984;7.668;2022-08-19T05:51:09;17.87;;;14.60;;
2388;SDS011;1205;47.984;7.668;2022-08-19T05:53:35;19.33;;;14.67;;
2388;SDS011;1205;47.984;7.668;2022-08-19T05:56:05;14.57;;;13.17;;
2388;SDS011;1205;47.984;7.668;2022-08-19T05:58:32;19.97;;;16.20;;
2388;SDS011;1205;47.984;7.668;2022-08-19T06:00:58;18.87;;;16.70;;
2388;SDS011;1205;47.984;7.668;2022-08-19T06:03:29;17.97;;;15.47;;
2388;SDS011;1205;47.984;7.668;2022-08-19T06:05:55;16.23;;;14.40;;
2388;SDS011;1205;47.984;7.668;2022-08-19T06:08:23;16.90;;;15.20;;
2388;SDS011;1205;47.984;7.668;2022-08-19T06:10:49;19.20;;;14.80;;
2388;SDS011;1205;47.984;7.668;2022-08-19T06:13:14;15.83;;;14.23;;
2388;SDS011;1205;47.984;7.668;2022-08-19T06:15:40;16.30;;;14.70;;
2388;SDS011;1205;47.984;7.668;2022-08-19T06:18:08;14.00;;;12.60;;
2388;SDS011;1205;47.984;7.668;2022-08-19T06:20:34;16.63;;;12.90;;
2388;SDS011;1205;47.984;7.668;2022-08-19T06:23:00;17.20;;;13.37;;
2388;SDS011;1205;47.984;7.668;2022-08-19T06:25:25;15.03;;;13.50;;
2388;SDS011;1205;47.984;7.668;2022-08-19T06:27:51;12.73;;;11.40;;
2388;SDS011;1205;47.984;7.668;2022-08-19T06:30:17;14.77;;;13.07;;
2388;SDS011;1205;47.984;7.668;2022-08-19T06:32:43;15.20;;;12.80;;
2388;SDS011;1205;47.984;7.668;2022-08-19T06:35:09;21.20;;;10.80;;
2388;SDS011;1205;47.984;7.668;2022-08-19T06:37:35;11.10;;;9.60;;
2388;SDS011;1205;47.984;7.668;2022-08-19T06:40:02;18.57;;;10.77;;
2388;SDS011;1205;47.984;7.668;2022-08-19T06:42:28;17.03;;;11.07;;
2388;SDS011;1205;47.984;7.668;2022-08-19T06:44:55;13.27;;;10.43;;
2388;SDS011;1205;47.984;7.668;2022-08-19T06:47:23;13.53;;;9.83;;
2388;SDS011;1205;47.984;7.668;2022-08-19T06:49:49;11.00;;;9.90;;
2388;SDS011;1205;47.984;7.668;2022-08-19T06:52:14;15.33;;;10.90;;
2388;SDS011;1205;47.984;7.668;2022-08-19T06:54:41;10.20;;;9.20;;
2388;SDS011;1205;47.984;7.668;2022-08-19T06:57:07;11.67;;;10.47;;
2388;SDS011;1205;47.984;7.668;2022-08-19T06:59:38;14.00;;;9.83;;
2388;SDS011;1205;47.984;7.668;2022-08-19T07:02:04;10.77;;;9.70;;
2388;SDS011;1205;47.984;7.668;2022-08-19T07:04:31;14.53;;;10.43;;
2388;SDS011;1205;47.984;7.668;2022-08-19T07:07:09;10.73;;;9.63;;
2388;SDS011;1205;47.984;7.668;2022-08-19T07:09:38;10.67;;;9.60;;
2388;SDS011;1205;47.984;7.668;2022-08-19T07:12:06;15.37;;;9.60;;
2388;SDS011;1205;47.984;7.668;2022-08-19T07:14:34;10.90;;;8.90;;
2388;SDS011;1205;47.984;7.668;2022-08-19T07:17:04;9.27;;;8.47;;
2388;SDS011;1205;47.984;7.668;2022-08-19T07:19:32;9.90;;;9.00;;
2388;SDS011;1205;47.984;7.668;2022-08-19T07:22:00;9.30;;;8.40;;
2388;SDS011;1205;47.984;7.668;2022-08-19T07:24:28;10.40;;;9.10;;
2388;SDS011;1205;47.984;7.668;2022-08-19T07:26:55;9.77;;;8.87;;
2388;SDS011;1205;47.984;7.668;2022-08-19T07:29:25;9.50;;;8.23;;
2388;SDS011;1205;47.984;7.668;2022-08-19T07:31:52;10.30;;;8.90;;
2388;SDS011;1205;47.984;7.668;2022-08-19T07:34:20;9.47;;;8.67;;
2388;SDS011;1205;47.984;7.668;2022-08-19T07:36:48;9.47;;;7.70;;
2388;SDS011;1205;47.984;7.668;2022-08-19T07:39:16;13.70;;;7.47;;
2388;SDS011;1205;47.984;7.668;2022-08-19T07:41:44;9.30;;;8.30;;
2388;SDS011;1205;47.984;7.668;2022-08-19T07:44:11;10.67;;;9.07;;
2388;SDS011;1205;47.984;7.668;2022-08-19T07:46:38;10.30;;;9.20;;
2388;SDS011;1205;47.984;7.668;2022-08-19T07:49:06;9.13;;;8.23;;
2388;SDS011;1205;47.984;7.668;2022-08-19T07:51:32;9.90;;;8.90;;
2388;SDS011;1205;47.984;7.668;2022-08-19T07:53:59;9.10;;;8.40;;
2388;SDS011;1205;47.984;7.668;2022-08-19T07:56:24;11.53;;;8.90;;
2388;SDS011;1205;47.984;7.668;2022-08-19T07:58:51;11.80;;;9.90;;
2388;SDS011;1205;47.984;7.668;2022-08-19T08:01:19;13.00;;;9.33;;
2388;SDS011;1205;47.984;7.668;2022-08-19T08:03:47;11.50;;;10.30;;
2388;SDS011;1205;47.984;7.668;2022-08-19T08:06:31;11.60;;;10.40;;
2388;SDS011;1205;47.984;7.668;2022-08-19T08:09:16;10.70;;;9.70;;
2388;SDS011;1205;47.984;7.668;2022-08-19T08:11:49;17.93;;;9.90;;
2388;SDS011;1205;47.984;7.668;2022-08-19T08:14:19;11.93;;;10.70;;
2388;SDS011;1205;47.984;7.668;2022-08-19T08:16:47;11.43;;;9.80;;
2388;SDS011;1205;47.984;7.668;2022-08-19T08:19:15;13.63;;;10.23;;
2388;SDS011;1205;47.984;7.668;2022-08-19T08:21:42;13.70;;;11.30;;
2388;SDS011;1205;47.984;7.668;2022-08-19T08:24:07;15.70;;;10.37;;
2388;SDS011;1205;47.984;7.668;2022-08-19T08:26:34;10.83;;;9.80;;
2388;SDS011;1205;47.984;7.668;2022-08-19T08:28:59;13.37;;;10.50;;
2388;SDS011;1205;47.984;7.668;2022-08-19T08:31:25;13.73;;;10.50;;
2388;SDS011;1205;47.984;7.668;2022-08-19T08:33:51;13.20;;;11.90;;
2388;SDS011;1205;47.984;7.668;2022-08-19T08:36:17;14.10;;;12.67;;
2388;SDS011;1205;47.984;7.668;2022-08-19T08:38:43;13.87;;;12.67;;
2388;SDS011;1205;47.984;7.668;2022-08-19T08:43:59;12.10;;;11.00;;
2388;SDS011;1205;47.984;7.668;2022-08-19T08:47:03;14.90;;;13.60;;
2388;SDS011;1205;47.984;7.668;2022-08-19T08:49:26;14.00;;;12.60;;
2388;SDS011;1205;47.984;7.668;2022-08-19T08:52:03;13.20;;;12.00;;
2388;SDS011;1205;47.984;7.668;2022-08-19T08:54:37;14.37;;;12.87;;
2388;SDS011;1205;47.984;7.668;2022-08-19T08:57:17;15.17;;;13.53;;
2388;SDS011;1205;47.984;7.668;2022-08-19T08:59:58;15.23;;;13.73;;
2388;SDS011;1205;47.984;7.668;2022-08-19T09:02:30;14.33;;;12.90;;
2388;SDS011;1205;47.984;7.668;2022-08-19T09:04:56;14.93;;;13.50;;
2388;SDS011;1205;47.984;7.668;2022-08-19T09:09:57;17.23;;;14.37;;
2388;SDS011;1205;47.984;7.668;2022-08-19T09:12:53;16.93;;;15.30;;
2388;SDS011;1205;47.984;7.668;2022-08-19T09:16:32;15.10;;;13.70;;
2388;SDS011;1205;47.984;7.668;2022-08-19T09:18:39;15.23;;;13.67;;
2388;SDS011;1205;47.984;7.668;2022-08-19T09:21:11;14.23;;;12.63;;
2388;SDS011;1205;47.984;7.668;2022-08-19T09:23:38;17.07;;;15.30;;
2388;SDS011;1205;47.984;7.668;2022-08-19T09:26:08;15.30;;;13.13;;
2388;SDS011;1205;47.984;7.668;2022-08-19T09:28:38;18.43;;;15.13;;
2388;SDS011;1205;47.984;7.668;2022-08-19T09:31:06;16.80;;;13.87;;
2388;SDS011;1205;47.984;7.668;2022-08-19T09:33:31;19.83;;;13.10;;
2388;SDS011;1205;47.984;7.668;2022-08-19T09:36:05;15.53;;;13.90;;
2388;SDS011;1205;47.984;7.668;2022-08-19T09:38:33;14.77;;;12.80;;
2388;SDS011;1205;47.984;7.668;2022-08-19T09:41:04;16.33;;;14.70;;
2388;SDS011;1205;47.984;7.668;2022-08-19T09:43:31;15.33;;;13.90;;
2388;SDS011;1205;47.984;7.668;2022-08-19T09:45:58;16.40;;;14.77;;
2388;SDS011;1205;47.984;7.668;2022-08-19T09:48:25;15.57;;;14.07;;
2388;SDS011;1205;47.984;7.668;2022-08-19T09:50:51;15.73;;;14.23;;
2388;SDS011;1205;47.984;7.668;2022-08-19T09:53:16;17.83;;;15.97;;
2388;SDS011;1205;47.984;7.668;2022-08-19T09:55:43;22.93;;;17.53;;
2388;SDS011;1205;47.984;7.668;2022-08-19T09:58:09;17.07;;;15.27;;
2388;SDS011;1205;47.984;7.668;2022-08-19T10:00:36;19.50;;;16.23;;
2388;SDS011;1205;47.984;7.668;2022-08-19T10:03:03;16.23;;;14.73;;
2388;SDS011;1205;47.984;7.668;2022-08-19T10:05:29;15.97;;;14.33;;
2388;SDS011;1205;47.984;7.668;2022-08-19T10:08:13;20.37;;;18.30;;
2388;SDS011;1205;47.984;7.668;2022-08-19T10:10:40;17.87;;;16.17;;
2388;SDS011;1205;47.984;7.668;2022-08-19T10:13:10;18.70;;;16.83;;
2388;SDS011;1205;47.984;7.668;2022-08-19T10:15:36;17.63;;;14.10;;
2388;SDS011;1205;47.984;7.668;2022-08-19T10:18:04;22.27;;;16.93;;
2388;SDS011;1205;47.984;7.668;2022-08-19T10:20:31;19.50;;;17.60;;
2388;SDS011;1205;47.984;7.668;2022-08-19T10:22:57;16.80;;;15.20;;
2388;SDS011;1205;47.984;7.668;2022-08-19T10:25:24;17.53;;;15.63;;
2388;SDS011;1205;47.984;7.668;2022-08-19T10:27:51;18.77;;;16.80;;
2388;SDS011;1205;47.984;7.668;2022-08-19T10:30:17;19.97;;;17.87;;
2388;SDS011;1205;47.984;7.668;2022-08-19T10:32:49;23.50;;;21.07;;
2388;SDS011;1205;47.984;7.668;2022-08-19T10:35:15;23.30;;;20.93;;
2388;SDS011;1205;47.984;7.668;2022-08-19T10:37:42;21.90;;;18.27;;
2388;SDS011;1205;47.984;7.668;2022-08-19T10:40:07;20.50;;;16.97;;
2388;SDS011;1205;47.984;7.668;2022-08-19T10:42:35;26.93;;;18.53;;
2388;SDS011;1205;47.984;7.668;2022-08-19T10:45:02;18.43;;;16.67;;
2388;SDS011;1205;47.984;7.668;2022-08-19T10:47:30;18.13;;;16.20;;
2388;SDS011;1205;47.984;7.668;2022-08-19T10:49:57;19.27;;;17.27;;
2388;SDS011;1205;47.984;7.668;2022-08-19T10:52:43;22.33;;;19.20;;
2388;SDS011;1205;47.984;7.668;2022-08-19T10:55:10;21.50;;;19.27;;
2388;SDS011;1205;47.984;7.668;2022-08-19T10:57:54;27.27;;;18.40;;
2388;SDS011;1205;47.984;7.668;2022-08-19T11:00:21;22.30;;;20.07;;
2388;SDS011;1205;47.984;7.668;2022-08-19T11:02:48;31.53;;;19.73;;
2388;SDS011;1205;47.984;7.668;2022-08-19T11:05:14;21.27;;;18.10;;
2388;SDS011;1205;47.984;7.668;2022-08-19T11:07:40;19.70;;;16.60;;
2388;SDS011;1205;47.984;7.668;2022-08-19T11:10:08;22.73;;;20.33;;
2388;SDS011;1205;47.984;7.668;2022-08-19T11:12:36;27.53;;;15.57;;
2388;SDS011;1205;47.984;7.668;2022-08-19T11:15:04;24.10;;;17.63;;
2388;SDS011;1205;47.984;7.668;2022-08-19T11:17:32;19.20;;;17.20;;
2388;SDS011;1205;47.984;7.668;2022-08-19T11:19:58;17.40;;;15.70;;
2388;SDS011;1205;47.984;7.668;2022-08-19T11:22:27;22.57;;;20.17;;
2388;SDS011;1205;47.984;7.668;2022-08-19T11:24:52;20.17;;;17.70;;
2388;SDS011;1205;47.984;7.668;2022-08-19T11:27:20;23.60;;;16.60;;
2388;SDS011;1205;47.984;7.668;2022-08-19T11:29:45;22.57;;;17.20;;
2388;SDS011;1205;47.984;7.668;2022-08-19T11:32:11;24.83;;;19.67;;
2388;SDS011;1205;47.984;7.668;2022-08-19T11:34:37;28.00;;;20.13;;
2388;SDS011;1205;47.984;7.668;2022-08-19T11:37:03;23.77;;;19.70;;
2388;SDS011;1205;47.984;7.668;2022-08-19T11:39:31;22.60;;;18.23;;
2388;SDS011;1205;47.984;7.668;2022-08-19T11:41:59;26.53;;;20.47;;
2388;SDS011;1205;47.984;7.668;2022-08-19T11:44:26;23.10;;;20.63;;
2388;SDS011;1205;47.984;7.668;2022-08-19T11:46:55;19.63;;;17.73;;
2388;SDS011;1205;47.984;7.668;2022-08-19T11:49:21;23.13;;;19.30;;
2388;SDS011;1205;47.984;7.668;2022-08-19T11:51:47;20.53;;;18.53;;
2388;SDS011;1205;47.984;7.668;2022-08-19T11:54:15;20.10;;;17.20;;
2388;SDS011;1205;47.984;7.668;2022-08-19T11:56:42;21.87;;;19.47;;
2388;SDS011;1205;47.984;7.668;2022-08-19T11:59:08;22.87;;;19.73;;
2388;SDS011;1205;47.984;7.668;2022-08-19T12:01:35;21.50;;;18.57;;
2388;SDS011;1205;47.984;7.668;2022-08-19T12:04:01;22.57;;;20.23;;
2388;SDS011;1205;47.984;7.668;2022-08-19T12:06:29;19.47;;;17.67;;
2388;SDS011;1205;47.984;7.668;2022-08-19T12:09:02;19.03;;;17.00;;
2388;SDS011;1205;47.984;7.668;2022-08-19T12:11:30;21.17;;;17.00;;
2388;SDS011;1205;47.984;7.668;2022-08-19T12:13:56;20.13;;;18.03;;
2388;SDS011;1205;47.984;7.668;2022-08-19T12:16:26;20.70;;;17.80;;
2388;SDS011;1205;47.984;7.668;2022-08-19T12:18:53;22.80;;;20.53;;
2388;SDS011;1205;47.984;7.668;2022-08-19T12:21:24;19.90;;;17.83;;
2388;SDS011;1205;47.984;7.668;2022-08-19T12:23:53;22.30;;;18.53;;
2388;SDS011;1205;47.984;7.668;2022-08-19T12:26:20;20.87;;;17.80;;
2388;SDS011;1205;47.984;7.668;2022-08-19T12:28:46;17.57;;;15.77;;
2388;SDS011;1205;47.984;7.668;2022-08-19T12:31:13;16.43;;;15.03;;
2388;SDS011;1205;47.984;7.668;2022-08-19T12:33:40;17.63;;;13.10;;
2388;SDS011;1205;47.984;7.668;2022-08-19T12:36:07;14.30;;;13.10;;
2388;SDS011;1205;47.984;7.668;2022-08-19T12:38:35;15.93;;;14.53;;
2388;SDS011;1205;47.984;7.668;2022-08-19T12:41:02;15.33;;;13.93;;
2388;SDS011;1205;47.984;7.668;2022-08-19T12:43:30;15.27;;;13.20;;
2388;SDS011;1205;47.984;7.668;2022-08-19T12:45:56;16.80;;;15.17;;
2388;SDS011;1205;47.984;7.668;2022-08-19T12:48:22;17.43;;;15.83;;
2388;SDS011;1205;47.984;7.668;2022-08-19T12:50:48;25.40;;;17.43;;
2388;SDS011;1205;47.984;7.668;2022-08-19T12:53:13;17.43;;;15.83;;
2388;SDS011;1205;47.984;7.668;2022-08-19T12:55:40;16.20;;;14.47;;
2388;SDS011;1205;47.984;7.668;2022-08-19T12:58:07;14.83;;;13.43;;
2388;SDS011;1205;47.984;7.668;2022-08-19T13:00:33;14.40;;;13.00;;
2388;SDS011;1205;47.984;7.668;2022-08-19T13:02:59;14.70;;;13.30;;
2388;SDS011;1205;47.984;7.668;2022-08-19T13:05:26;19.53;;;13.80;;
2388;SDS011;1205;47.984;7.668;2022-08-19T13:07:55;18.40;;;13.50;;
2388;SDS011;1205;47.984;7.668;2022-08-19T13:10:25;18.70;;;13.00;;
2388;SDS011;1205;47.984;7.668;2022-08-19T13:12:53;16.10;;;14.50;;
2388;SDS011;1205;47.984;7.668;2022-08-19T13:15:21;19.13;;;14.00;;
2388;SDS011;1205;47.984;7.668;2022-08-19T13:17:48;13.67;;;12.47;;
2388;SDS011;1205;47.984;7.668;2022-08-19T13:20:16;12.73;;;11.50;;
2388;SDS011;1205;47.984;7.668;2022-08-19T13:22:44;14.03;;;12.67;;
2388;SDS011;1205;47.984;7.668;2022-08-19T13:25:10;17.83;;;12.60;;
2388;SDS011;1205;47.984;7.668;2022-08-19T13:27:39;13.47;;;12.17;;
2388;SDS011;1205;47.984;7.668;2022-08-19T13:30:07;12.30;;;11.10;;
2388;SDS011;1205;47.984;7.668;2022-08-19T13:32:53;14.50;;;13.00;;
2388;SDS011;1205;47.984;7.668;2022-08-19T13:35:37;13.90;;;12.60;;
2388;SDS011;1205;47.984;7.668;2022-08-19T13:38:04;14.23;;;12.80;;
2388;SDS011;1205;47.984;7.668;2022-08-19T13:40:30;13.30;;;12.10;;
2388;SDS011;1205;47.984;7.668;2022-08-19T13:42:58;13.57;;;12.37;;
2388;SDS011;1205;47.984;7.668;2022-08-19T13:45:25;14.87;;;13.37;;
2388;SDS011;1205;47.984;7.668;2022-08-19T13:47:53;17.80;;;16.00;;
2388;SDS011;1205;47.984;7.668;2022-08-19T13:50:22;16.43;;;14.83;;
2388;SDS011;1205;47.984;7.668;2022-08-19T13:52:53;17.37;;;15.40;;
2388;SDS011;1205;47.984;7.668;2022-08-19T13:55:19;17.53;;;15.73;;
2388;SDS011;1205;47.984;7.668;2022-08-19T13:57:46;18.33;;;16.50;;
2388;SDS011;1205;47.984;7.668;2022-08-19T14:00:17;17.40;;;15.60;;
2388;SDS011;1205;47.984;7.668;2022-08-19T14:02:44;19.83;;;17.73;;
2388;SDS011;1205;47.984;7.668;2022-08-19T14:05:11;21.10;;;17.70;;
2388;SDS011;1205;47.984;7.668;2022-08-19T14:07:39;20.60;;;18.43;;
2388;SDS011;1205;47.984;7.668;2022-08-19T14:10:06;18.90;;;17.00;;
2388;SDS011;1205;47.984;7.668;2022-08-19T14:12:33;21.40;;;19.30;;
2388;SDS011;1205;47.984;7.668;2022-08-19T14:14:59;18.27;;;16.47;;
2388;SDS011;1205;47.984;7.668;2022-08-19T14:17:25;19.23;;;17.53;;
2388;SDS011;1205;47.984;7.668;2022-08-19T14:19:58;19.17;;;17.37;;
2388;SDS011;1205;47.984;7.668;2022-08-19T14:22:28;19.10;;;16.93;;
2388;SDS011;1205;47.984;7.668;2022-08-19T14:24:56;18.50;;;16.50;;
2388;SDS011;1205;47.984;7.668;2022-08-19T14:27:22;16.63;;;15.03;;
2388;SDS011;1205;47.984;7.668;2022-08-19T14:29:50;17.63;;;15.63;;
2388;SDS011;1205;47.984;7.668;2022-08-19T14:32:16;17.70;;;15.73;;
2388;SDS011;1205;47.984;7.668;2022-08-19T14:34:42;17.70;;;15.00;;
2388;SDS011;1205;47.984;7.668;2022-08-19T14:37:10;15.67;;;14.17;;
2388;SDS011;1205;47.984;7.668;2022-08-19T14:39:38;15.50;;;13.97;;
2388;SDS011;1205;47.984;7.668;2022-08-19T14:42:06;16.83;;;13.17;;
2388;SDS011;1205;47.984;7.668;2022-08-19T14:44:33;14.77;;;13.37;;
2388;SDS011;1205;47.984;7.668;2022-08-19T14:46:59;15.60;;;14.20;;
2388;SDS011;1205;47.984;7.668;2022-08-19T14:49:25;14.33;;;13.03;;
2388;SDS011;1205;47.984;7.668;2022-08-19T14:51:50;15.07;;;13.43;;
2388;SDS011;1205;47.984;7.668;2022-08-19T14:54:16;12.97;;;11.70;;
2388;SDS011;1205;47.984;7.668;2022-08-19T14:56:41;13.27;;;12.07;;
2388;SDS011;1205;47.984;7.668;2022-08-19T14:59:08;13.00;;;11.80;;
2388;SDS011;1205;47.984;7.668;2022-08-19T15:01:33;13.33;;;12.13;;